Merriam, Kansas
Current Conditions -  °F | °C
As of 1:54 PM on Tuesday 21 Oct 2014 (Local Time) from KMKC Reporting Station
Clear Clear  
Wind Chill: 72°   Ceiling: Unl
Heat Index: 72°   Visibility: 10mi
Dew Point: 42°   Wind: 3mph
Humidity: 34%   Direction: 260°W
Pressure: 30.09"   Gusts: NA
Location:  38.993°N, 94.6774°W
Report Text: KMKC 211854Z 26003KT 10SM CLR 22/06 A3009 RMK AO2 SLP188 T02220056
Loading
Personal Weather Stations






























Interactive Weather Map
Tropical Storm Tracking
New forecast layout! Learn more

10-Day Weather Forecast

Advertisements
Track Severe Weather on mobile